sensor_id;sensor_type;location;lat;lon;timestamp;temperature;humidity
12043;DHT22;6082;49.306;12.862;2023-08-21T00:02:05;23.00;99.90
12043;DHT22;6082;49.306;12.862;2023-08-21T00:04:30;23.00;99.90
12043;DHT22;6082;49.306;12.862;2023-08-21T00:06:56;23.00;99.90
12043;DHT22;6082;49.306;12.862;2023-08-21T00:09:22;22.90;99.90
12043;DHT22;6082;49.306;12.862;2023-08-21T00:11:47;22.90;99.90
12043;DHT22;6082;49.306;12.862;2023-08-21T00:14:13;22.90;99.90
12043;DHT22;6082;49.306;12.862;2023-08-21T00:16:39;22.80;99.90
12043;DHT22;6082;49.306;12.862;2023-08-21T00:19:04;22.80;99.90
12043;DHT22;6082;49.306;12.862;2023-08-21T00:21:30;22.80;99.90
12043;DHT22;6082;49.306;12.862;2023-08-21T00:23:56;22.70;99.90
12043;DHT22;6082;49.306;12.862;2023-08-21T00:26:22;22.70;99.90
12043;DHT22;6082;49.306;12.862;2023-08-21T00:28:47;22.70;99.90
12043;DHT22;6082;49.306;12.862;2023-08-21T00:31:13;22.60;99.90
12043;DHT22;6082;49.306;12.862;2023-08-21T00:33:39;22.60;99.90
12043;DHT22;6082;49.306;12.862;2023-08-21T00:36:05;22.60;99.90
12043;DHT22;6082;49.306;12.862;2023-08-21T00:38:30;22.60;99.90
12043;DHT22;6082;49.306;12.862;2023-08-21T00:40:56;22.50;99.90
12043;DHT22;6082;49.306;12.862;2023-08-21T00:43:23;22.50;99.90
12043;DHT22;6082;49.306;12.862;2023-08-21T00:45:50;22.50;99.90
12043;DHT22;6082;49.306;12.862;2023-08-21T00:48:15;22.50;99.90
12043;DHT22;6082;49.306;12.862;2023-08-21T00:50:42;22.40;99.90
12043;DHT22;6082;49.306;12.862;2023-08-21T00:53:08;22.40;99.90
12043;DHT22;6082;49.306;12.862;2023-08-21T00:55:34;22.40;99.90
12043;DHT22;6082;49.306;12.862;2023-08-21T00:58:01;22.30;99.90
12043;DHT22;6082;49.306;12.862;2023-08-21T01:00:29;22.30;99.90
12043;DHT22;6082;49.306;12.862;2023-08-21T01:02:55;22.30;99.90
12043;DHT22;6082;49.306;12.862;2023-08-21T01:05:24;22.30;99.90
12043;DHT22;6082;49.306;12.862;2023-08-21T01:07:56;22.20;99.90
12043;DHT22;6082;49.306;12.862;2023-08-21T01:10:37;22.20;99.90
12043;DHT22;6082;49.306;12.862;2023-08-21T01:15:39;22.20;99.90
12043;DHT22;6082;49.306;12.862;2023-08-21T01:18:07;22.20;99.90
12043;DHT22;6082;49.306;12.862;2023-08-21T01:20:34;22.10;99.90
12043;DHT22;6082;49.306;12.862;2023-08-21T01:23:04;22.00;99.90
12043;DHT22;6082;49.306;12.862;2023-08-21T01:25:31;22.00;99.90
12043;DHT22;6082;49.306;12.862;2023-08-21T01:27:56;21.90;99.90
12043;DHT22;6082;49.306;12.862;2023-08-21T01:30:22;22.00;99.90
12043;DHT22;6082;49.306;12.862;2023-08-21T01:35:27;22.00;99.90
12043;DHT22;6082;49.306;12.862;2023-08-21T01:37:54;21.90;99.90
12043;DHT22;6082;49.306;12.862;2023-08-21T01:40:24;21.90;99.90
12043;DHT22;6082;49.306;12.862;2023-08-21T01:42:52;21.90;99.90
12043;DHT22;6082;49.306;12.862;2023-08-21T01:45:17;21.90;99.90
12043;DHT22;6082;49.306;12.862;2023-08-21T01:47:43;21.90;99.90
12043;DHT22;6082;49.306;12.862;2023-08-21T01:50:09;21.90;99.90
12043;DHT22;6082;49.306;12.862;2023-08-21T01:52:35;21.80;99.90
12043;DHT22;6082;49.306;12.862;2023-08-21T01:55:00;21.80;99.90
12043;DHT22;6082;49.306;12.862;2023-08-21T01:57:29;21.80;99.90
12043;DHT22;6082;49.306;12.862;2023-08-21T01:59:55;21.70;99.90
12043;DHT22;6082;49.306;12.862;2023-08-21T02:02:20;21.70;99.90
12043;DHT22;6082;49.306;12.862;2023-08-21T02:04:46;21.70;99.90
12043;DHT22;6082;49.306;12.862;2023-08-21T02:07:12;21.70;99.90
12043;DHT22;6082;49.306;12.862;2023-08-21T02:09:38;21.70;99.90
12043;DHT22;6082;49.306;12.862;2023-08-21T02:12:04;21.70;99.90
12043;DHT22;6082;49.306;12.862;2023-08-21T02:14:29;21.70;99.90
12043;DHT22;6082;49.306;12.862;2023-08-21T02:16:55;21.60;99.90
12043;DHT22;6082;49.306;12.862;2023-08-21T02:19:21;21.60;99.90
12043;DHT22;6082;49.306;12.862;2023-08-21T02:21:47;21.60;99.90
12043;DHT22;6082;49.306;12.862;2023-08-21T02:24:12;21.60;99.90
12043;DHT22;6082;49.306;12.862;2023-08-21T02:26:38;21.60;99.90
12043;DHT22;6082;49.306;12.862;2023-08-21T02:29:04;21.60;99.90
12043;DHT22;6082;49.306;12.862;2023-08-21T02:31:29;21.60;99.90
12043;DHT22;6082;49.306;12.862;2023-08-21T02:33:55;21.60;99.90
12043;DHT22;6082;49.306;12.862;2023-08-21T02:36:21;21.60;99.90
12043;DHT22;6082;49.306;12.862;2023-08-21T02:38:46;21.60;99.90
12043;DHT22;6082;49.306;12.862;2023-08-21T02:41:12;21.50;99.90
12043;DHT22;6082;49.306;12.862;2023-08-21T02:43:38;21.50;99.90
12043;DHT22;6082;49.306;12.862;2023-08-21T02:46:04;21.50;99.90
12043;DHT22;6082;49.306;12.862;2023-08-21T02:48:29;21.50;99.90
12043;DHT22;6082;49.306;12.862;2023-08-21T02:50:55;21.50;99.90
12043;DHT22;6082;49.306;12.862;2023-08-21T02:53:21;21.50;99.90
12043;DHT22;6082;49.306;12.862;2023-08-21T02:55:46;21.40;99.90
12043;DHT22;6082;49.306;12.862;2023-08-21T02:58:12;21.40;99.90
12043;DHT22;6082;49.306;12.862;2023-08-21T03:00:38;21.40;99.90
12043;DHT22;6082;49.306;12.862;2023-08-21T03:03:04;21.40;99.90
12043;DHT22;6082;49.306;12.862;2023-08-21T03:05:30;21.40;99.90
12043;DHT22;6082;49.306;12.862;2023-08-21T03:07:55;21.30;99.90
12043;DHT22;6082;49.306;12.862;2023-08-21T03:10:21;21.30;99.90
12043;DHT22;6082;49.306;12.862;2023-08-21T03:12:49;21.30;99.90
12043;DHT22;6082;49.306;12.862;2023-08-21T03:15:14;21.30;99.90
12043;DHT22;6082;49.306;12.862;2023-08-21T03:17:41;21.30;99.90
12043;DHT22;6082;49.306;12.862;2023-08-21T03:20:07;21.30;99.90
12043;DHT22;6082;49.306;12.862;2023-08-21T03:22:34;21.30;99.90
12043;DHT22;6082;49.306;12.862;2023-08-21T03:24:59;21.30;99.90
12043;DHT22;6082;49.306;12.862;2023-08-21T03:27:25;21.20;99.90
12043;DHT22;6082;49.306;12.862;2023-08-21T03:29:51;21.20;99.90
12043;DHT22;6082;49.306;12.862;2023-08-21T03:32:17;21.20;99.90
12043;DHT22;6082;49.306;12.862;2023-08-21T03:34:43;21.20;99.90
12043;DHT22;6082;49.306;12.862;2023-08-21T03:37:09;21.20;99.90
12043;DHT22;6082;49.306;12.862;2023-08-21T03:39:35;21.20;99.90
12043;DHT22;6082;49.306;12.862;2023-08-21T03:42:01;21.20;99.90
12043;DHT22;6082;49.306;12.862;2023-08-21T03:44:27;21.20;99.90
12043;DHT22;6082;49.306;12.862;2023-08-21T03:46:53;21.20;99.90
12043;DHT22;6082;49.306;12.862;2023-08-21T03:49:18;21.20;99.90
12043;DHT22;6082;49.306;12.862;2023-08-21T03:51:44;21.20;99.90
12043;DHT22;6082;49.306;12.862;2023-08-21T03:54:10;21.20;99.90
12043;DHT22;6082;49.306;12.862;2023-08-21T03:56:36;21.10;99.90
12043;DHT22;6082;49.306;12.862;2023-08-21T03:59:02;21.00;99.90
12043;DHT22;6082;49.306;12.862;2023-08-21T04:01:28;21.00;99.90
12043;DHT22;6082;49.306;12.862;2023-08-21T04:03:57;21.00;99.90
12043;DHT22;6082;49.306;12.862;2023-08-21T04:06:22;21.00;99.90
12043;DHT22;6082;49.306;12.862;2023-08-21T04:08:48;21.00;99.90
12043;DHT22;6082;49.306;12.862;2023-08-21T04:11:15;21.00;99.90
12043;DHT22;6082;49.306;12.862;2023-08-21T04:13:41;21.00;99.90
12043;DHT22;6082;49.306;12.862;2023-08-21T04:16:07;21.00;99.90
12043;DHT22;6082;49.306;12.862;2023-08-21T04:18:33;21.00;99.90
12043;DHT22;6082;49.306;12.862;2023-08-21T04:21:02;21.00;99.90
12043;DHT22;6082;49.306;12.862;2023-08-21T04:23:27;21.00;99.90
12043;DHT22;6082;49.306;12.862;2023-08-21T04:25:53;21.00;99.90
12043;DHT22;6082;49.306;12.862;2023-08-21T04:28:25;21.00;99.90
12043;DHT22;6082;49.306;12.862;2023-08-21T04:30:50;21.00;99.90
12043;DHT22;6082;49.306;12.862;2023-08-21T04:33:16;21.10;99.90
12043;DHT22;6082;49.306;12.862;2023-08-21T04:35:42;21.10;99.90
12043;DHT22;6082;49.306;12.862;2023-08-21T04:38:07;21.10;99.90
12043;DHT22;6082;49.306;12.862;2023-08-21T04:40:33;21.10;99.90
12043;DHT22;6082;49.306;12.862;2023-08-21T04:42:59;21.10;99.90
12043;DHT22;6082;49.306;12.862;2023-08-21T04:45:25;21.20;99.90
12043;DHT22;6082;49.306;12.862;2023-08-21T04:47:50;21.20;99.90
12043;DHT22;6082;49.306;12.862;2023-08-21T04:50:16;21.20;99.90
12043;DHT22;6082;49.306;12.862;2023-08-21T04:52:42;21.20;99.90
12043;DHT22;6082;49.306;12.862;2023-08-21T04:55:08;21.20;99.90
12043;DHT22;6082;49.306;12.862;2023-08-21T04:57:34;21.20;99.90
12043;DHT22;6082;49.306;12.862;2023-08-21T05:00:00;21.20;99.90
12043;DHT22;6082;49.306;12.862;2023-08-21T05:02:26;21.20;99.90
12043;DHT22;6082;49.306;12.862;2023-08-21T05:04:51;21.20;99.90
12043;DHT22;6082;49.306;12.862;2023-08-21T05:07:20;21.20;99.90
12043;DHT22;6082;49.306;12.862;2023-08-21T05:09:46;21.20;99.90
12043;DHT22;6082;49.306;12.862;2023-08-21T05:12:12;21.20;99.90
12043;DHT22;6082;49.306;12.862;2023-08-21T05:14:37;21.20;99.90
12043;DHT22;6082;49.306;12.862;2023-08-21T05:17:04;21.20;99.90
12043;DHT22;6082;49.306;12.862;2023-08-21T05:19:30;21.30;99.90
12043;DHT22;6082;49.306;12.862;2023-08-21T05:21:55;21.30;99.90
12043;DHT22;6082;49.306;12.862;2023-08-21T05:24:25;21.40;99.90
12043;DHT22;6082;49.306;12.862;2023-08-21T05:26:51;21.40;99.90
12043;DHT22;6082;49.306;12.862;2023-08-21T05:29:16;21.50;99.90
12043;DHT22;6082;49.306;12.862;2023-08-21T05:31:42;21.40;99.90
12043;DHT22;6082;49.306;12.862;2023-08-21T05:34:08;21.40;99.90
12043;DHT22;6082;49.306;12.862;2023-08-21T05:36:34;21.50;99.90
12043;DHT22;6082;49.306;12.862;2023-08-21T05:39:02;21.50;99.90
12043;DHT22;6082;49.306;12.862;2023-08-21T05:41:31;21.50;99.90
12043;DHT22;6082;49.306;12.862;2023-08-21T05:43:57;21.60;99.90
12043;DHT22;6082;49.306;12.862;2023-08-21T05:46:23;21.60;99.90
12043;DHT22;6082;49.306;12.862;2023-08-21T05:48:49;21.60;99.90
12043;DHT22;6082;49.306;12.862;2023-08-21T05:51:14;21.60;99.90
12043;DHT22;6082;49.306;12.862;2023-08-21T05:53:40;21.70;99.90
12043;DHT22;6082;49.306;12.862;2023-08-21T05:56:06;21.80;99.90
12043;DHT22;6082;49.306;12.862;2023-08-21T05:58:31;21.80;99.90
12043;DHT22;6082;49.306;12.862;2023-08-21T06:00:58;21.90;99.90
12043;DHT22;6082;49.306;12.862;2023-08-21T06:03:24;21.90;99.90
12043;DHT22;6082;49.306;12.862;2023-08-21T06:05:50;21.90;99.90
12043;DHT22;6082;49.306;12.862;2023-08-21T06:08:16;22.00;99.90
12043;DHT22;6082;49.306;12.862;2023-08-21T06:10:42;22.10;99.90
12043;DHT22;6082;49.306;12.862;2023-08-21T06:13:07;22.10;99.90
12043;DHT22;6082;49.306;12.862;2023-08-21T06:15:33;22.10;99.90
12043;DHT22;6082;49.306;12.862;2023-08-21T06:17:59;22.10;99.90
12043;DHT22;6082;49.306;12.862;2023-08-21T06:20:25;22.20;99.90
12043;DHT22;6082;49.306;12.862;2023-08-21T06:22:51;22.20;99.90
12043;DHT22;6082;49.306;12.862;2023-08-21T06:25:17;22.20;99.90
12043;DHT22;6082;49.306;12.862;2023-08-21T06:27:44;22.30;99.90
12043;DHT22;6082;49.306;12.862;2023-08-21T06:30:11;22.30;99.90
12043;DHT22;6082;49.306;12.862;2023-08-21T06:32:36;22.30;99.90
12043;DHT22;6082;49.306;12.862;2023-08-21T06:35:02;22.40;99.90
12043;DHT22;6082;49.306;12.862;2023-08-21T06:37:28;22.40;99.90
12043;DHT22;6082;49.306;12.862;2023-08-21T06:39:54;22.50;99.90
12043;DHT22;6082;49.306;12.862;2023-08-21T06:42:19;22.60;99.90
12043;DHT22;6082;49.306;12.862;2023-08-21T06:44:45;22.60;99.90
12043;DHT22;6082;49.306;12.862;2023-08-21T06:47:11;22.70;99.90
12043;DHT22;6082;49.306;12.862;2023-08-21T06:49:37;22.70;99.90
12043;DHT22;6082;49.306;12.862;2023-08-21T06:52:02;22.70;99.90
12043;DHT22;6082;49.306;12.862;2023-08-21T06:54:29;22.70;99.90
12043;DHT22;6082;49.306;12.862;2023-08-21T06:56:54;22.70;99.90
12043;DHT22;6082;49.306;12.862;2023-08-21T06:59:20;22.70;99.90
12043;DHT22;6082;49.306;12.862;2023-08-21T07:01:46;22.70;99.90
12043;DHT22;6082;49.306;12.862;2023-08-21T07:04:12;22.70;99.90
12043;DHT22;6082;49.306;12.862;2023-08-21T07:06:39;22.70;99.90
12043;DHT22;6082;49.306;12.862;2023-08-21T07:09:05;22.70;99.90
12043;DHT22;6082;49.306;12.862;2023-08-21T07:11:31;22.70;99.90
12043;DHT22;6082;49.306;12.862;2023-08-21T07:13:57;22.80;99.90
12043;DHT22;6082;49.306;12.862;2023-08-21T07:16:23;22.90;99.90
12043;DHT22;6082;49.306;12.862;2023-08-21T07:18:48;23.00;99.90
12043;DHT22;6082;49.306;12.862;2023-08-21T07:21:14;23.10;99.90
12043;DHT22;6082;49.306;12.862;2023-08-21T07:23:40;23.10;99.90
12043;DHT22;6082;49.306;12.862;2023-08-21T07:26:05;23.10;99.90
12043;DHT22;6082;49.306;12.862;2023-08-21T07:28:33;23.20;99.90
12043;DHT22;6082;49.306;12.862;2023-08-21T07:30:59;23.30;99.90
12043;DHT22;6082;49.306;12.862;2023-08-21T07:33:25;23.40;99.90
12043;DHT22;6082;49.306;12.862;2023-08-21T07:38:24;23.50;99.90
12043;DHT22;6082;49.306;12.862;2023-08-21T07:40:50;23.50;99.90
12043;DHT22;6082;49.306;12.862;2023-08-21T07:43:16;23.50;99.90
12043;DHT22;6082;49.306;12.862;2023-08-21T07:45:41;23.50;99.90
12043;DHT22;6082;49.306;12.862;2023-08-21T07:48:07;23.60;99.90
12043;DHT22;6082;49.306;12.862;2023-08-21T07:50:33;23.70;99.90
12043;DHT22;6082;49.306;12.862;2023-08-21T07:52:58;23.70;99.90
12043;DHT22;6082;49.306;12.862;2023-08-21T07:55:24;23.90;99.90
12043;DHT22;6082;49.306;12.862;2023-08-21T07:57:50;24.00;99.90
12043;DHT22;6082;49.306;12.862;2023-08-21T08:00:16;24.10;99.90
12043;DHT22;6082;49.306;12.862;2023-08-21T08:02:42;24.20;99.90
12043;DHT22;6082;49.306;12.862;2023-08-21T08:05:12;24.30;99.90
12043;DHT22;6082;49.306;12.862;2023-08-21T08:07:42;24.40;99.90
12043;DHT22;6082;49.306;12.862;2023-08-21T08:10:08;24.60;99.90
12043;DHT22;6082;49.306;12.862;2023-08-21T08:12:34;24.70;99.90
12043;DHT22;6082;49.306;12.862;2023-08-21T08:15:00;24.80;99.90
12043;DHT22;6082;49.306;12.862;2023-08-21T08:17:25;25.00;99.90
12043;DHT22;6082;49.306;12.862;2023-08-21T08:19:51;25.10;99.90
12043;DHT22;6082;49.306;12.862;2023-08-21T08:22:17;25.20;99.90
12043;DHT22;6082;49.306;12.862;2023-08-21T08:24:43;25.40;99.90
12043;DHT22;6082;49.306;12.862;2023-08-21T08:27:08;25.50;99.90
12043;DHT22;6082;49.306;12.862;2023-08-21T08:29:35;25.60;99.90
12043;DHT22;6082;49.306;12.862;2023-08-21T08:32:01;25.70;99.90
12043;DHT22;6082;49.306;12.862;2023-08-21T08:34:26;25.90;99.90
12043;DHT22;6082;49.306;12.862;2023-08-21T08:36:52;26.10;99.90
12043;DHT22;6082;49.306;12.862;2023-08-21T08:39:18;26.20;99.90
12043;DHT22;6082;49.306;12.862;2023-08-21T08:42:02;26.30;99.90
12043;DHT22;6082;49.306;12.862;2023-08-21T08:44:29;26.40;99.90
12043;DHT22;6082;49.306;12.862;2023-08-21T08:46:56;26.50;99.90
12043;DHT22;6082;49.306;12.862;2023-08-21T08:49:22;26.60;99.90
12043;DHT22;6082;49.306;12.862;2023-08-21T08:51:51;26.70;99.90
12043;DHT22;6082;49.306;12.862;2023-08-21T08:54:20;26.80;99.90
12043;DHT22;6082;49.306;12.862;2023-08-21T08:56:46;26.90;99.90
12043;DHT22;6082;49.306;12.862;2023-08-21T08:59:11;27.00;99.90
12043;DHT22;6082;49.306;12.862;2023-08-21T09:01:43;27.10;99.90
12043;DHT22;6082;49.306;12.862;2023-08-21T09:04:09;27.20;99.90
12043;DHT22;6082;49.306;12.862;2023-08-21T09:06:36;27.30;99.90
12043;DHT22;6082;49.306;12.862;2023-08-21T09:09:02;27.40;99.90
12043;DHT22;6082;49.306;12.862;2023-08-21T09:11:28;27.50;99.90
12043;DHT22;6082;49.306;12.862;2023-08-21T09:13:54;27.60;99.90
12043;DHT22;6082;49.306;12.862;2023-08-21T09:16:22;27.70;99.90
12043;DHT22;6082;49.306;12.862;2023-08-21T09:21:21;27.90;99.90
12043;DHT22;6082;49.306;12.862;2023-08-21T09:23:47;27.90;99.90
12043;DHT22;6082;49.306;12.862;2023-08-21T09:26:21;28.00;99.90
12043;DHT22;6082;49.306;12.862;2023-08-21T09:28:51;28.10;99.90
12043;DHT22;6082;49.306;12.862;2023-08-21T09:31:32;28.10;99.90
12043;DHT22;6082;49.306;12.862;2023-08-21T09:34:04;28.10;99.90
12043;DHT22;6082;49.306;12.862;2023-08-21T09:36:31;28.30;99.90
12043;DHT22;6082;49.306;12.862;2023-08-21T09:38:56;28.30;99.90
12043;DHT22;6082;49.306;12.862;2023-08-21T09:41:23;28.30;99.90
12043;DHT22;6082;49.306;12.862;2023-08-21T09:43:49;28.50;99.90
12043;DHT22;6082;49.306;12.862;2023-08-21T09:46:24;28.50;99.90
12043;DHT22;6082;49.306;12.862;2023-08-21T09:48:52;28.50;99.90
12043;DHT22;6082;49.306;12.862;2023-08-21T09:51:18;28.50;99.90
12043;DHT22;6082;49.306;12.862;2023-08-21T09:53:44;28.50;99.90
12043;DHT22;6082;49.306;12.862;2023-08-21T09:56:13;28.60;99.90
12043;DHT22;6082;49.306;12.862;2023-08-21T09:58:39;28.60;99.90
12043;DHT22;6082;49.306;12.862;2023-08-21T10:01:07;28.70;99.90
12043;DHT22;6082;49.306;12.862;2023-08-21T10:03:43;28.70;99.90
12043;DHT22;6082;49.306;12.862;2023-08-21T10:06:17;28.80;99.90
12043;DHT22;6082;49.306;12.862;2023-08-21T10:08:48;28.90;99.90
12043;DHT22;6082;49.306;12.862;2023-08-21T10:11:18;29.00;99.90
12043;DHT22;6082;49.306;12.862;2023-08-21T10:13:45;29.10;99.90
12043;DHT22;6082;49.306;12.862;2023-08-21T10:16:11;29.20;99.90
12043;DHT22;6082;49.306;12.862;2023-08-21T10:18:37;29.20;99.90
12043;DHT22;6082;49.306;12.862;2023-08-21T10:21:19;29.20;99.90
12043;DHT22;6082;49.306;12.862;2023-08-21T10:23:47;29.40;99.90
12043;DHT22;6082;49.306;12.862;2023-08-21T10:26:14;29.40;99.90
12043;DHT22;6082;49.306;12.862;2023-08-21T10:28:54;29.50;99.90
12043;DHT22;6082;49.306;12.862;2023-08-21T10:34:03;29.70;99.90
12043;DHT22;6082;49.306;12.862;2023-08-21T10:39:24;29.70;99.90
12043;DHT22;6082;49.306;12.862;2023-08-21T10:42:07;29.80;99.90
12043;DHT22;6082;49.306;12.862;2023-08-21T10:44:53;29.90;99.90
12043;DHT22;6082;49.306;12.862;2023-08-21T10:49:57;30.10;99.90
12043;DHT22;6082;49.306;12.862;2023-08-21T10:52:24;30.10;99.90
12043;DHT22;6082;49.306;12.862;2023-08-21T10:54:53;30.20;99.90
12043;DHT22;6082;49.306;12.862;2023-08-21T10:57:19;30.20;99.90
12043;DHT22;6082;49.306;12.862;2023-08-21T10:59:52;30.20;99.90
12043;DHT22;6082;49.306;12.862;2023-08-21T11:02:18;30.40;99.90
12043;DHT22;6082;49.306;12.862;2023-08-21T11:04:44;30.40;99.90
12043;DHT22;6082;49.306;12.862;2023-08-21T11:07:10;30.50;99.90
12043;DHT22;6082;49.306;12.862;2023-08-21T11:09:37;30.60;99.90
12043;DHT22;6082;49.306;12.862;2023-08-21T11:12:10;30.70;99.90
12043;DHT22;6082;49.306;12.862;2023-08-21T11:14:37;30.80;99.90
12043;DHT22;6082;49.306;12.862;2023-08-21T11:17:03;30.90;99.90
12043;DHT22;6082;49.306;12.862;2023-08-21T11:19:33;31.00;99.90
12043;DHT22;6082;49.306;12.862;2023-08-21T11:22:03;31.20;99.90
12043;DHT22;6082;49.306;12.862;2023-08-21T11:24:49;31.20;99.90
12043;DHT22;6082;49.306;12.862;2023-08-21T11:27:18;31.30;99.90
12043;DHT22;6082;49.306;12.862;2023-08-21T11:29:51;31.40;99.90
12043;DHT22;6082;49.306;12.862;2023-08-21T11:32:21;31.50;99.90
12043;DHT22;6082;49.306;12.862;2023-08-21T11:37:24;31.70;99.90
12043;DHT22;6082;49.306;12.862;2023-08-21T11:39:51;31.80;99.90
12043;DHT22;6082;49.306;12.862;2023-08-21T11:42:22;31.80;99.90
12043;DHT22;6082;49.306;12.862;2023-08-21T11:44:53;31.80;99.90
12043;DHT22;6082;49.306;12.862;2023-08-21T11:47:21;31.90;99.90
12043;DHT22;6082;49.306;12.862;2023-08-21T11:49:47;32.00;99.90
12043;DHT22;6082;49.306;12.862;2023-08-21T11:52:21;32.10;99.90
12043;DHT22;6082;49.306;12.862;2023-08-21T11:54:49;32.20;99.90
12043;DHT22;6082;49.306;12.862;2023-08-21T11:57:15;32.30;99.90
12043;DHT22;6082;49.306;12.862;2023-08-21T11:59:41;32.50;99.90
12043;DHT22;6082;49.306;12.862;2023-08-21T12:02:14;32.50;99.90
12043;DHT22;6082;49.306;12.862;2023-08-21T12:04:41;32.50;99.90
12043;DHT22;6082;49.306;12.862;2023-08-21T12:07:07;32.50;99.90
12043;DHT22;6082;49.306;12.862;2023-08-21T12:09:32;32.40;99.90
12043;DHT22;6082;49.306;12.862;2023-08-21T12:11:58;32.40;99.90
12043;DHT22;6082;49.306;12.862;2023-08-21T12:14:24;32.30;99.90
12043;DHT22;6082;49.306;12.862;2023-08-21T12:16:50;32.30;99.90
12043;DHT22;6082;49.306;12.862;2023-08-21T12:19:15;32.40;99.90
12043;DHT22;6082;49.306;12.862;2023-08-21T12:21:41;32.60;99.90
12043;DHT22;6082;49.306;12.862;2023-08-21T12:24:07;32.60;99.90
12043;DHT22;6082;49.306;12.862;2023-08-21T12:26:33;32.60;99.90
12043;DHT22;6082;49.306;12.862;2023-08-21T12:29:00;32.60;99.90
12043;DHT22;6082;49.306;12.862;2023-08-21T12:31:26;32.60;99.90
12043;DHT22;6082;49.306;12.862;2023-08-21T12:33:52;32.70;99.90
12043;DHT22;6082;49.306;12.862;2023-08-21T12:36:18;32.60;99.90
12043;DHT22;6082;49.306;12.862;2023-08-21T12:38:43;32.60;99.90
12043;DHT22;6082;49.306;12.862;2023-08-21T12:41:09;32.80;99.90
12043;DHT22;6082;49.306;12.862;2023-08-21T12:43:35;32.80;99.10
12043;DHT22;6082;49.306;12.862;2023-08-21T12:46:01;32.90;99.90
12043;DHT22;6082;49.306;12.862;2023-08-21T12:48:26;32.80;98.50
12043;DHT22;6082;49.306;12.862;2023-08-21T12:50:52;32.70;98.10
12043;DHT22;6082;49.306;12.862;2023-08-21T12:53:18;32.80;98.10
12043;DHT22;6082;49.306;12.862;2023-08-21T12:55:44;32.90;97.00
12043;DHT22;6082;49.306;12.862;2023-08-21T12:58:10;33.00;97.50
12043;DHT22;6082;49.306;12.862;2023-08-21T13:00:39;33.00;96.30
12043;DHT22;6082;49.306;12.862;2023-08-21T13:03:05;33.10;96.20
12043;DHT22;6082;49.306;12.862;2023-08-21T13:05:30;33.10;96.40
12043;DHT22;6082;49.306;12.862;2023-08-21T13:07:56;33.10;96.30
12043;DHT22;6082;49.306;12.862;2023-08-21T13:10:22;33.20;97.10
12043;DHT22;6082;49.306;12.862;2023-08-21T13:12:48;33.30;97.50
12043;DHT22;6082;49.306;12.862;2023-08-21T13:15:14;33.30;95.50
12043;DHT22;6082;49.306;12.862;2023-08-21T13:17:40;33.30;95.40
12043;DHT22;6082;49.306;12.862;2023-08-21T13:20:06;33.30;95.60
12043;DHT22;6082;49.306;12.862;2023-08-21T13:23:00;33.40;95.50
12043;DHT22;6082;49.306;12.862;2023-08-21T13:25:26;33.40;95.90
12043;DHT22;6082;49.306;12.862;2023-08-21T13:27:52;33.40;96.10
12043;DHT22;6082;49.306;12.862;2023-08-21T13:30:18;33.30;96.10
12043;DHT22;6082;49.306;12.862;2023-08-21T13:32:44;33.30;95.80
12043;DHT22;6082;49.306;12.862;2023-08-21T13:35:13;33.40;97.30
12043;DHT22;6082;49.306;12.862;2023-08-21T13:37:39;33.50;96.20
12043;DHT22;6082;49.306;12.862;2023-08-21T13:40:06;33.50;97.00
12043;DHT22;6082;49.306;12.862;2023-08-21T13:42:40;33.50;96.70
12043;DHT22;6082;49.306;12.862;2023-08-21T13:45:16;33.60;97.00
12043;DHT22;6082;49.306;12.862;2023-08-21T13:47:44;33.70;96.80
12043;DHT22;6082;49.306;12.862;2023-08-21T13:50:12;33.80;96.70
12043;DHT22;6082;49.306;12.862;2023-08-21T13:52:38;33.70;95.90
12043;DHT22;6082;49.306;12.862;2023-08-21T13:55:05;33.70;95.90
12043;DHT22;6082;49.306;12.862;2023-08-21T13:57:31;33.70;95.60
12043;DHT22;6082;49.306;12.862;2023-08-21T14:00:00;33.70;95.10
12043;DHT22;6082;49.306;12.862;2023-08-21T14:02:26;33.70;93.90
12043;DHT22;6082;49.306;12.862;2023-08-21T14:04:52;33.70;94.20
12043;DHT22;6082;49.306;12.862;2023-08-21T14:07:18;33.70;93.90
12043;DHT22;6082;49.306;12.862;2023-08-21T14:09:44;33.80;93.70
12043;DHT22;6082;49.306;12.862;2023-08-21T14:12:09;33.90;94.10
12043;DHT22;6082;49.306;12.862;2023-08-21T14:14:36;33.80;94.40
12043;DHT22;6082;49.306;12.862;2023-08-21T14:17:02;33.80;93.50
12043;DHT22;6082;49.306;12.862;2023-08-21T14:19:29;33.80;93.10
12043;DHT22;6082;49.306;12.862;2023-08-21T14:21:58;33.80;93.60
12043;DHT22;6082;49.306;12.862;2023-08-21T14:24:24;33.90;93.90
12043;DHT22;6082;49.306;12.862;2023-08-21T14:26:50;33.90;93.20
12043;DHT22;6082;49.306;12.862;2023-08-21T14:29:15;33.90;93.50
12043;DHT22;6082;49.306;12.862;2023-08-21T14:31:41;33.90;93.60
12043;DHT22;6082;49.306;12.862;2023-08-21T14:34:07;33.90;94.10
12043;DHT22;6082;49.306;12.862;2023-08-21T14:36:32;34.00;93.60
12043;DHT22;6082;49.306;12.862;2023-08-21T14:38:59;34.00;94.20
12043;DHT22;6082;49.306;12.862;2023-08-21T14:41:25;33.90;92.70
12043;DHT22;6082;49.306;12.862;2023-08-21T14:43:50;34.00;93.50
12043;DHT22;6082;49.306;12.862;2023-08-21T14:46:16;34.00;94.30
12043;DHT22;6082;49.306;12.862;2023-08-21T14:48:42;34.10;94.30
12043;DHT22;6082;49.306;12.862;2023-08-21T14:51:07;34.00;94.10
12043;DHT22;6082;49.306;12.862;2023-08-21T14:53:33;34.10;94.30
12043;DHT22;6082;49.306;12.862;2023-08-21T14:55:59;34.00;94.30
12043;DHT22;6082;49.306;12.862;2023-08-21T14:58:24;34.10;94.90
12043;DHT22;6082;49.306;12.862;2023-08-21T15:00:54;34.10;94.10
12043;DHT22;6082;49.306;12.862;2023-08-21T15:03:20;34.10;93.40
12043;DHT22;6082;49.306;12.862;2023-08-21T15:05:47;34.10;94.00
12043;DHT22;6082;49.306;12.862;2023-08-21T15:08:13;34.10;94.60
12043;DHT22;6082;49.306;12.862;2023-08-21T15:10:38;34.10;94.80
12043;DHT22;6082;49.306;12.862;2023-08-21T15:13:04;34.10;94.80
12043;DHT22;6082;49.306;12.862;2023-08-21T15:15:33;34.00;94.50
12043;DHT22;6082;49.306;12.862;2023-08-21T15:17:59;34.00;94.30
12043;DHT22;6082;49.306;12.862;2023-08-21T15:20:25;34.00;95.00
12043;DHT22;6082;49.306;12.862;2023-08-21T15:22:50;34.00;94.40
12043;DHT22;6082;49.306;12.862;2023-08-21T15:25:16;34.00;93.20
12043;DHT22;6082;49.306;12.862;2023-08-21T15:27:42;34.00;94.30
12043;DHT22;6082;49.306;12.862;2023-08-21T15:30:08;34.00;94.30
12043;DHT22;6082;49.306;12.862;2023-08-21T15:32:34;34.00;94.50
12043;DHT22;6082;49.306;12.862;2023-08-21T15:35:01;33.90;93.00
12043;DHT22;6082;49.306;12.862;2023-08-21T15:37:27;33.70;92.70
12043;DHT22;6082;49.306;12.862;2023-08-21T15:39:52;33.80;94.10
12043;DHT22;6082;49.306;12.862;2023-08-21T15:42:19;33.80;93.70
12043;DHT22;6082;49.306;12.862;2023-08-21T15:44:45;33.80;93.40
12043;DHT22;6082;49.306;12.862;2023-08-21T15:47:10;33.80;94.10
12043;DHT22;6082;49.306;12.862;2023-08-21T15:49:36;33.80;94.20